sensor_id;sensor_type;location;lat;lon;timestamp;pressure;altitude;pressure_sealevel;temperature;humidity
50933;BME280;36921;49.006;9.292;2023-02-16T00:01:34;99880.88;;;-1.42;100.00
50933;BME280;36921;49.006;9.292;2023-02-16T00:04:00;99888.28;;;-1.47;100.00
50933;BME280;36921;49.006;9.292;2023-02-16T00:06:27;99887.19;;;-1.58;100.00
50933;BME280;36921;49.006;9.292;2023-02-16T00:08:54;99892.97;;;-1.65;100.00
50933;BME280;36921;49.006;9.292;2023-02-16T00:11:27;99896.50;;;-1.65;100.00
50933;BME280;36921;49.006;9.292;2023-02-16T00:14:13;99896.19;;;-1.60;100.00
50933;BME280;36921;49.006;9.292;2023-02-16T00:16:39;99896.09;;;-1.59;100.00
50933;BME280;36921;49.006;9.292;2023-02-16T00:21:55;99887.00;;;-1.55;100.00
50933;BME280;36921;49.006;9.292;2023-02-16T00:24:28;99884.09;;;-1.64;100.00
50933;BME280;36921;49.006;9.292;2023-02-16T00:26:54;99884.66;;;-1.73;100.00
50933;BME280;36921;49.006;9.292;2023-02-16T00:29:27;99879.84;;;-1.81;100.00
50933;BME280;36921;49.006;9.292;2023-02-16T00:31:54;99872.56;;;-1.78;100.00
50933;BME280;36921;49.006;9.292;2023-02-16T00:34:39;99880.53;;;-1.78;100.00
50933;BME280;36921;49.006;9.292;2023-02-16T00:37:07;99882.44;;;-1.80;100.00
50933;BME280;36921;49.006;9.292;2023-02-16T00:39:36;99888.97;;;-1.85;100.00
50933;BME280;36921;49.006;9.292;2023-02-16T00:42:04;99880.63;;;-1.79;100.00
50933;BME280;36921;49.006;9.292;2023-02-16T00:44:43;99888.00;;;-1.70;100.00
50933;BME280;36921;49.006;9.292;2023-02-16T00:47:37;99892.91;;;-1.64;100.00
50933;BME280;36921;49.006;9.292;2023-02-16T00:52:40;99880.47;;;-1.90;100.00
50933;BME280;36921;49.006;9.292;2023-02-16T00:55:16;99890.66;;;-1.84;100.00
50933;BME280;36921;49.006;9.292;2023-02-16T00:57:55;99884.03;;;-1.91;100.00
50933;BME280;36921;49.006;9.292;2023-02-16T01:00:27;99888.69;;;-1.95;100.00
50933;BME280;36921;49.006;9.292;2023-02-16T01:02:57;99899.22;;;-1.93;100.00
50933;BME280;36921;49.006;9.292;2023-02-16T01:05:23;99887.69;;;-2.07;100.00
50933;BME280;36921;49.006;9.292;2023-02-16T01:07:49;99891.38;;;-2.09;100.00
50933;BME280;36921;49.006;9.292;2023-02-16T01:10:36;99888.34;;;-2.17;100.00
50933;BME280;36921;49.006;9.292;2023-02-16T01:13:21;99888.84;;;-2.25;100.00
50933;BME280;36921;49.006;9.292;2023-02-16T01:15:47;99883.63;;;-2.27;100.00
50933;BME280;36921;49.006;9.292;2023-02-16T01:18:14;99886.91;;;-2.23;100.00
50933;BME280;36921;49.006;9.292;2023-02-16T01:20:40;99887.00;;;-2.10;100.00
50933;BME280;36921;49.006;9.292;2023-02-16T01:23:05;99884.56;;;-2.13;100.00
50933;BME280;36921;49.006;9.292;2023-02-16T01:25:30;99876.88;;;-2.18;100.00
50933;BME280;36921;49.006;9.292;2023-02-16T01:27:56;99874.34;;;-2.19;100.00
50933;BME280;36921;49.006;9.292;2023-02-16T01:30:23;99873.59;;;-2.22;100.00
50933;BME280;36921;49.006;9.292;2023-02-16T01:32:49;99875.09;;;-2.32;100.00
50933;BME280;36921;49.006;9.292;2023-02-16T01:35:20;99871.44;;;-2.44;100.00
50933;BME280;36921;49.006;9.292;2023-02-16T01:37:45;99873.03;;;-2.41;100.00
50933;BME280;36921;49.006;9.292;2023-02-16T01:45:50;99857.50;;;-2.33;100.00
50933;BME280;36921;49.006;9.292;2023-02-16T01:48:26;99859.84;;;-2.28;100.00
50933;BME280;36921;49.006;9.292;2023-02-16T01:53:34;99871.59;;;-2.32;100.00
50933;BME280;36921;49.006;9.292;2023-02-16T01:56:05;99855.78;;;-2.34;100.00
50933;BME280;36921;49.006;9.292;2023-02-16T01:58:39;99866.50;;;-2.35;100.00
50933;BME280;36921;49.006;9.292;2023-02-16T02:03:50;99865.53;;;-2.34;100.00
50933;BME280;36921;49.006;9.292;2023-02-16T02:06:35;99858.72;;;-2.24;100.00
50933;BME280;36921;49.006;9.292;2023-02-16T02:09:10;99853.34;;;-2.23;100.00
50933;BME280;36921;49.006;9.292;2023-02-16T02:11:44;99865.16;;;-2.28;100.00
50933;BME280;36921;49.006;9.292;2023-02-16T02:14:17;99864.03;;;-2.38;100.00
50933;BME280;36921;49.006;9.292;2023-02-16T02:16:59;99857.03;;;-2.39;100.00
50933;BME280;36921;49.006;9.292;2023-02-16T02:19:26;99844.53;;;-2.52;100.00
50933;BME280;36921;49.006;9.292;2023-02-16T02:25:42;99850.78;;;-2.53;100.00
50933;BME280;36921;49.006;9.292;2023-02-16T02:28:22;99851.19;;;-2.59;100.00
50933;BME280;36921;49.006;9.292;2023-02-16T02:31:20;99840.09;;;-2.66;100.00
50933;BME280;36921;49.006;9.292;2023-02-16T02:37:18;99843.78;;;-2.68;100.00
50933;BME280;36921;49.006;9.292;2023-02-16T02:39:52;99842.34;;;-2.74;100.00
50933;BME280;36921;49.006;9.292;2023-02-16T02:43:19;99831.28;;;-2.80;100.00
50933;BME280;36921;49.006;9.292;2023-02-16T02:45:52;99837.44;;;-2.80;100.00
50933;BME280;36921;49.006;9.292;2023-02-16T02:48:18;99835.84;;;-2.82;100.00
50933;BME280;36921;49.006;9.292;2023-02-16T02:53:40;99821.06;;;-2.87;100.00
50933;BME280;36921;49.006;9.292;2023-02-16T02:56:07;99829.50;;;-2.80;100.00
50933;BME280;36921;49.006;9.292;2023-02-16T02:58:58;99833.94;;;-2.66;100.00
50933;BME280;36921;49.006;9.292;2023-02-16T03:01:49;99822.22;;;-2.76;100.00
50933;BME280;36921;49.006;9.292;2023-02-16T03:04:18;99823.72;;;-2.87;100.00
50933;BME280;36921;49.006;9.292;2023-02-16T03:06:47;99826.34;;;-2.87;100.00
50933;BME280;36921;49.006;9.292;2023-02-16T03:09:14;99831.66;;;-2.87;100.00
50933;BME280;36921;49.006;9.292;2023-02-16T03:11:40;99833.25;;;-2.84;100.00
50933;BME280;36921;49.006;9.292;2023-02-16T03:14:32;99827.88;;;-2.82;100.00
50933;BME280;36921;49.006;9.292;2023-02-16T03:17:01;99837.53;;;-2.81;100.00
50933;BME280;36921;49.006;9.292;2023-02-16T03:19:51;99836.63;;;-2.96;100.00
50933;BME280;36921;49.006;9.292;2023-02-16T03:22:36;99835.03;;;-2.99;100.00
50933;BME280;36921;49.006;9.292;2023-02-16T03:25:23;99838.06;;;-3.05;100.00
50933;BME280;36921;49.006;9.292;2023-02-16T03:28:09;99836.63;;;-2.96;100.00
50933;BME280;36921;49.006;9.292;2023-02-16T03:30:55;99833.41;;;-3.01;100.00
50933;BME280;36921;49.006;9.292;2023-02-16T03:33:21;99836.06;;;-3.01;100.00
50933;BME280;36921;49.006;9.292;2023-02-16T03:35:48;99837.34;;;-2.93;100.00
50933;BME280;36921;49.006;9.292;2023-02-16T03:38:14;99840.56;;;-2.88;100.00
50933;BME280;36921;49.006;9.292;2023-02-16T03:40:42;99833.72;;;-2.92;100.00
50933;BME280;36921;49.006;9.292;2023-02-16T03:43:08;99840.38;;;-2.84;100.00
50933;BME280;36921;49.006;9.292;2023-02-16T03:45:36;99841.22;;;-2.84;100.00
50933;BME280;36921;49.006;9.292;2023-02-16T03:48:03;99832.88;;;-2.92;100.00
50933;BME280;36921;49.006;9.292;2023-02-16T03:50:28;99842.63;;;-2.93;100.00
50933;BME280;36921;49.006;9.292;2023-02-16T03:52:54;99842.63;;;-2.93;100.00
50933;BME280;36921;49.006;9.292;2023-02-16T03:55:33;99849.16;;;-2.84;100.00
50933;BME280;36921;49.006;9.292;2023-02-16T03:57:59;99849.25;;;-2.85;100.00
50933;BME280;36921;49.006;9.292;2023-02-16T04:00:25;99845.47;;;-2.96;100.00
50933;BME280;36921;49.006;9.292;2023-02-16T04:02:52;99849.81;;;-2.95;100.00
50933;BME280;36921;49.006;9.292;2023-02-16T04:05:17;99842.03;;;-2.98;100.00
50933;BME280;36921;49.006;9.292;2023-02-16T04:07:42;99838.81;;;-2.89;100.00
50933;BME280;36921;49.006;9.292;2023-02-16T04:10:09;99837.13;;;-2.90;100.00
50933;BME280;36921;49.006;9.292;2023-02-16T04:12:34;99839.59;;;-2.87;100.00
50933;BME280;36921;49.006;9.292;2023-02-16T04:15:00;99850.31;;;-2.74;100.00
50933;BME280;36921;49.006;9.292;2023-02-16T04:17:25;99840.16;;;-2.81;100.00
50933;BME280;36921;49.006;9.292;2023-02-16T04:19:53;99827.38;;;-2.89;100.00
50933;BME280;36921;49.006;9.292;2023-02-16T04:22:18;99850.31;;;-2.74;100.00
50933;BME280;36921;49.006;9.292;2023-02-16T04:24:46;99841.78;;;-2.79;100.00
50933;BME280;36921;49.006;9.292;2023-02-16T04:27:12;99850.75;;;-2.81;100.00
50933;BME280;36921;49.006;9.292;2023-02-16T04:29:37;99841.22;;;-2.84;100.00
50933;BME280;36921;49.006;9.292;2023-02-16T04:32:03;99847.34;;;-2.83;100.00
50933;BME280;36921;49.006;9.292;2023-02-16T04:34:28;99848.13;;;-2.81;100.00
50933;BME280;36921;49.006;9.292;2023-02-16T04:36:55;99855.69;;;-2.90;100.00
50933;BME280;36921;49.006;9.292;2023-02-16T04:39:20;99857.00;;;-2.82;100.00
50933;BME280;36921;49.006;9.292;2023-02-16T04:41:46;99840.31;;;-2.99;100.00
50933;BME280;36921;49.006;9.292;2023-02-16T04:44:11;99847.53;;;-3.01;100.00
50933;BME280;36921;49.006;9.292;2023-02-16T04:46:37;99845.34;;;-3.09;100.00
50933;BME280;36921;49.006;9.292;2023-02-16T04:49:02;99846.38;;;-3.11;100.00
50933;BME280;36921;49.006;9.292;2023-02-16T04:51:28;99848.19;;;-3.12;100.00
50933;BME280;36921;49.006;9.292;2023-02-16T04:53:53;99846.72;;;-3.17;100.00
50933;BME280;36921;49.006;9.292;2023-02-16T04:56:18;99849.53;;;-3.20;100.00
50933;BME280;36921;49.006;9.292;2023-02-16T04:58:44;99850.31;;;-3.18;100.00
50933;BME280;36921;49.006;9.292;2023-02-16T05:01:20;99850.97;;;-3.15;100.00
50933;BME280;36921;49.006;9.292;2023-02-16T05:03:46;99843.16;;;-3.16;100.00
50933;BME280;36921;49.006;9.292;2023-02-16T05:06:11;99847.84;;;-3.21;100.00
50933;BME280;36921;49.006;9.292;2023-02-16T05:08:37;99844.81;;;-3.29;100.00
50933;BME280;36921;49.006;9.292;2023-02-16T05:11:02;99845.34;;;-3.39;100.00
50933;BME280;36921;49.006;9.292;2023-02-16T05:13:47;99842.22;;;-3.45;100.00
50933;BME280;36921;49.006;9.292;2023-02-16T05:16:31;99855.91;;;-3.39;100.00
50933;BME280;36921;49.006;9.292;2023-02-16T05:18:56;99850.16;;;-3.45;100.00
50933;BME280;36921;49.006;9.292;2023-02-16T05:21:22;99851.66;;;-3.41;100.00
50933;BME280;36921;49.006;9.292;2023-02-16T05:24:04;99858.13;;;-3.31;100.00
50933;BME280;36921;49.006;9.292;2023-02-16T05:26:31;99859.00;;;-3.46;100.00
50933;BME280;36921;49.006;9.292;2023-02-16T05:28:57;99850.59;;;-3.53;100.00
50933;BME280;36921;49.006;9.292;2023-02-16T05:31:24;99856.13;;;-3.58;100.00
50933;BME280;36921;49.006;9.292;2023-02-16T05:33:50;99854.00;;;-3.67;100.00
50933;BME280;36921;49.006;9.292;2023-02-16T05:36:15;99860.06;;;-3.65;100.00
50933;BME280;36921;49.006;9.292;2023-02-16T05:38:41;99857.16;;;-3.60;100.00
50933;BME280;36921;49.006;9.292;2023-02-16T05:41:06;99847.28;;;-3.72;100.00
50933;BME280;36921;49.006;9.292;2023-02-16T05:43:32;99853.50;;;-3.73;100.00
50933;BME280;36921;49.006;9.292;2023-02-16T05:45:57;99853.16;;;-3.67;100.00
50933;BME280;36921;49.006;9.292;2023-02-16T05:48:23;99865.53;;;-3.68;100.00
50933;BME280;36921;49.006;9.292;2023-02-16T05:50:48;99856.78;;;-3.54;100.00
50933;BME280;36921;49.006;9.292;2023-02-16T05:53:14;99871.75;;;-3.53;100.00
50933;BME280;36921;49.006;9.292;2023-02-16T05:55:40;99871.06;;;-3.57;100.00
50933;BME280;36921;49.006;9.292;2023-02-16T05:58:05;99868.31;;;-3.55;100.00
50933;BME280;36921;49.006;9.292;2023-02-16T06:00:31;99876.03;;;-3.66;100.00
50933;BME280;36921;49.006;9.292;2023-02-16T06:02:58;99880.72;;;-3.71;100.00
50933;BME280;36921;49.006;9.292;2023-02-16T06:05:24;99881.47;;;-3.69;100.00
50933;BME280;36921;49.006;9.292;2023-02-16T06:07:49;99885.66;;;-3.65;100.00
50933;BME280;36921;49.006;9.292;2023-02-16T06:10:15;99888.47;;;-3.68;100.00
50933;BME280;36921;49.006;9.292;2023-02-16T06:12:41;99894.69;;;-3.69;100.00
50933;BME280;36921;49.006;9.292;2023-02-16T06:15:06;99881.75;;;-3.74;100.00
50933;BME280;36921;49.006;9.292;2023-02-16T06:17:32;99892.22;;;-3.72;100.00
50933;BME280;36921;49.006;9.292;2023-02-16T06:19:57;99893.19;;;-3.73;100.00
50933;BME280;36921;49.006;9.292;2023-02-16T06:22:22;99889.56;;;-3.72;100.00
50933;BME280;36921;49.006;9.292;2023-02-16T06:24:48;99899.84;;;-3.66;100.00
50933;BME280;36921;49.006;9.292;2023-02-16T06:27:13;99872.19;;;-3.77;100.00
50933;BME280;36921;49.006;9.292;2023-02-16T06:29:39;99904.59;;;-3.57;100.00
50933;BME280;36921;49.006;9.292;2023-02-16T06:32:04;99892.91;;;-3.53;100.00
50933;BME280;36921;49.006;9.292;2023-02-16T06:34:29;99897.78;;;-3.61;100.00
50933;BME280;36921;49.006;9.292;2023-02-16T06:36:54;99891.53;;;-3.60;100.00
50933;BME280;36921;49.006;9.292;2023-02-16T06:39:20;99893.81;;;-3.54;100.00
50933;BME280;36921;49.006;9.292;2023-02-16T06:41:45;99887.44;;;-3.50;100.00
50933;BME280;36921;49.006;9.292;2023-02-16T06:44:15;99882.47;;;-3.40;100.00
50933;BME280;36921;49.006;9.292;2023-02-16T06:46:42;99885.19;;;-3.42;100.00
50933;BME280;36921;49.006;9.292;2023-02-16T06:49:16;99883.94;;;-3.20;100.00
50933;BME280;36921;49.006;9.292;2023-02-16T06:51:45;99889.84;;;-3.15;100.00
50933;BME280;36921;49.006;9.292;2023-02-16T06:54:11;99886.84;;;-3.09;100.00
50933;BME280;36921;49.006;9.292;2023-02-16T06:56:37;99895.25;;;-3.02;100.00
50933;BME280;36921;49.006;9.292;2023-02-16T06:59:03;99894.53;;;-2.90;100.00
50933;BME280;36921;49.006;9.292;2023-02-16T07:01:28;99891.97;;;-2.92;100.00
50933;BME280;36921;49.006;9.292;2023-02-16T07:03:56;99895.78;;;-2.81;100.00
50933;BME280;36921;49.006;9.292;2023-02-16T07:06:22;99900.44;;;-2.71;100.00
50933;BME280;36921;49.006;9.292;2023-02-16T07:08:49;99899.78;;;-2.60;100.00
50933;BME280;36921;49.006;9.292;2023-02-16T07:11:15;99893.28;;;-2.26;100.00
50933;BME280;36921;49.006;9.292;2023-02-16T07:13:41;99893.94;;;-1.39;100.00
50933;BME280;36921;49.006;9.292;2023-02-16T07:16:08;99889.03;;;-0.65;100.00
50933;BME280;36921;49.006;9.292;2023-02-16T07:18:34;99868.78;;;0.57;100.00
50933;BME280;36921;49.006;9.292;2023-02-16T07:20:59;99871.41;;;1.85;100.00
50933;BME280;36921;49.006;9.292;2023-02-16T07:23:25;99864.84;;;2.99;100.00
50933;BME280;36921;49.006;9.292;2023-02-16T07:25:50;99875.13;;;3.45;100.00
50933;BME280;36921;49.006;9.292;2023-02-16T07:28:16;99869.91;;;2.81;100.00
50933;BME280;36921;49.006;9.292;2023-02-16T07:30:41;99860.59;;;2.64;100.00
50933;BME280;36921;49.006;9.292;2023-02-16T07:33:07;99870.84;;;2.48;100.00
50933;BME280;36921;49.006;9.292;2023-02-16T07:35:33;99863.75;;;3.22;100.00
50933;BME280;36921;49.006;9.292;2023-02-16T07:37:59;99855.28;;;5.37;100.00
50933;BME280;36921;49.006;9.292;2023-02-16T07:40:25;99861.75;;;7.10;100.00
50933;BME280;36921;49.006;9.292;2023-02-16T07:42:50;99857.78;;;8.35;87.55
50933;BME280;36921;49.006;9.292;2023-02-16T07:45:16;99858.50;;;8.45;71.07
50933;BME280;36921;49.006;9.292;2023-02-16T07:47:41;99867.06;;;9.32;64.88
50933;BME280;36921;49.006;9.292;2023-02-16T07:50:07;99872.94;;;9.69;61.82
50933;BME280;36921;49.006;9.292;2023-02-16T07:52:33;99875.50;;;9.70;60.65
50933;BME280;36921;49.006;9.292;2023-02-16T07:54:59;99868.06;;;8.90;62.12
50933;BME280;36921;49.006;9.292;2023-02-16T07:57:25;99878.34;;;9.69;60.87
50933;BME280;36921;49.006;9.292;2023-02-16T07:59:51;99879.13;;;10.02;62.21
50933;BME280;36921;49.006;9.292;2023-02-16T08:02:18;99870.28;;;9.60;62.20
50933;BME280;36921;49.006;9.292;2023-02-16T08:04:44;99872.03;;;11.11;58.02
50933;BME280;36921;49.006;9.292;2023-02-16T08:07:15;99871.66;;;11.75;54.77
50933;BME280;36921;49.006;9.292;2023-02-16T08:09:42;99866.59;;;11.72;56.03
50933;BME280;36921;49.006;9.292;2023-02-16T08:12:12;99878.84;;;10.44;57.44
50933;BME280;36921;49.006;9.292;2023-02-16T08:14:39;99879.66;;;12.21;54.04
50933;BME280;36921;49.006;9.292;2023-02-16T08:17:06;99882.94;;;11.78;53.96
50933;BME280;36921;49.006;9.292;2023-02-16T08:19:32;99882.34;;;11.91;54.78
50933;BME280;36921;49.006;9.292;2023-02-16T08:21:59;99876.66;;;12.31;54.14
50933;BME280;36921;49.006;9.292;2023-02-16T08:24:25;99881.56;;;11.82;54.02
50933;BME280;36921;49.006;9.292;2023-02-16T08:26:51;99865.69;;;11.18;54.76
50933;BME280;36921;49.006;9.292;2023-02-16T08:29:19;99874.81;;;11.78;54.46
50933;BME280;36921;49.006;9.292;2023-02-16T08:31:46;99864.38;;;11.52;55.65
50933;BME280;36921;49.006;9.292;2023-02-16T08:34:14;99873.31;;;11.76;55.36
50933;BME280;36921;49.006;9.292;2023-02-16T08:36:42;99857.03;;;12.65;53.62
50933;BME280;36921;49.006;9.292;2023-02-16T08:39:19;99864.69;;;13.62;52.87
50933;BME280;36921;49.006;9.292;2023-02-16T08:41:49;99854.41;;;14.55;49.80
50933;BME280;36921;49.006;9.292;2023-02-16T08:44:16;99861.47;;;14.98;48.32
50933;BME280;36921;49.006;9.292;2023-02-16T08:46:43;99853.69;;;14.95;47.56
50933;BME280;36921;49.006;9.292;2023-02-16T08:49:10;99858.59;;;15.59;47.08
50933;BME280;36921;49.006;9.292;2023-02-16T08:51:39;99852.47;;;16.69;45.18
50933;BME280;36921;49.006;9.292;2023-02-16T08:54:06;99856.44;;;16.73;44.90
50933;BME280;36921;49.006;9.292;2023-02-16T08:56:35;99850.69;;;16.94;43.31
50933;BME280;36921;49.006;9.292;2023-02-16T08:59:01;99849.59;;;16.50;45.05
50933;BME280;36921;49.006;9.292;2023-02-16T09:01:26;99854.28;;;16.36;44.76
50933;BME280;36921;49.006;9.292;2023-02-16T09:03:52;99836.56;;;18.23;42.66
50933;BME280;36921;49.006;9.292;2023-02-16T09:06:19;99845.97;;;17.65;42.80
50933;BME280;36921;49.006;9.292;2023-02-16T09:08:55;99831.91;;;18.42;42.47
50933;BME280;36921;49.006;9.292;2023-02-16T09:11:22;99842.78;;;18.85;41.29
50933;BME280;36921;49.006;9.292;2023-02-16T09:13:48;99836.81;;;18.88;41.40
50933;BME280;36921;49.006;9.292;2023-02-16T09:16:19;99842.94;;;19.32;40.51
50933;BME280;36921;49.006;9.292;2023-02-16T09:18:45;99843.41;;;20.70;39.56
50933;BME280;36921;49.006;9.292;2023-02-16T09:21:16;99836.56;;;20.73;38.54
50933;BME280;36921;49.006;9.292;2023-02-16T09:23:44;99840.59;;;21.11;38.70
50933;BME280;36921;49.006;9.292;2023-02-16T09:26:15;99839.88;;;22.00;38.17
50933;BME280;36921;49.006;9.292;2023-02-16T09:28:41;99829.97;;;23.36;35.89
50933;BME280;36921;49.006;9.292;2023-02-16T09:31:18;99837.59;;;23.56;35.90
50933;BME280;36921;49.006;9.292;2023-02-16T09:33:51;99821.84;;;22.97;36.13
50933;BME280;36921;49.006;9.292;2023-02-16T09:36:17;99846.50;;;21.65;37.49
50933;BME280;36921;49.006;9.292;2023-02-16T09:38:43;99832.09;;;23.29;35.56
50933;BME280;36921;49.006;9.292;2023-02-16T09:44:15;99833.38;;;22.67;37.00
50933;BME280;36921;49.006;9.292;2023-02-16T09:46:42;99834.72;;;24.15;35.32
50933;BME280;36921;49.006;9.292;2023-02-16T09:51:44;99838.19;;;24.43;33.81
50933;BME280;36921;49.006;9.292;2023-02-16T09:54:43;99833.63;;;23.47;35.33
50933;BME280;36921;49.006;9.292;2023-02-16T09:57:21;99825.06;;;23.11;35.73
50933;BME280;36921;49.006;9.292;2023-02-16T10:02:47;99819.34;;;26.10;32.60
50933;BME280;36921;49.006;9.292;2023-02-16T10:05:19;99823.53;;;25.77;33.17
50933;BME280;36921;49.006;9.292;2023-02-16T10:13:55;99824.03;;;25.02;33.78
50933;BME280;36921;49.006;9.292;2023-02-16T10:16:28;99824.56;;;23.83;34.31
50933;BME280;36921;49.006;9.292;2023-02-16T10:18:55;99823.19;;;25.07;33.20
50933;BME280;36921;49.006;9.292;2023-02-16T10:21:24;99821.31;;;25.99;32.51
50933;BME280;36921;49.006;9.292;2023-02-16T10:24:04;99815.78;;;26.75;31.30
50933;BME280;36921;49.006;9.292;2023-02-16T10:26:36;99817.44;;;25.65;31.90
50933;BME280;36921;49.006;9.292;2023-02-16T10:29:16;99821.72;;;24.63;32.94
50933;BME280;36921;49.006;9.292;2023-02-16T10:43:03;99802.91;;;26.29;31.15
50933;BME280;36921;49.006;9.292;2023-02-16T10:45:38;99794.09;;;27.90;30.29
50933;BME280;36921;49.006;9.292;2023-02-16T10:48:08;99790.72;;;28.46;29.35
50933;BME280;36921;49.006;9.292;2023-02-16T10:55:56;99788.09;;;27.78;29.66
50933;BME280;36921;49.006;9.292;2023-02-16T10:58:25;99781.50;;;27.97;29.00
50933;BME280;36921;49.006;9.292;2023-02-16T11:01:02;99786.38;;;27.18;29.59
50933;BME280;36921;49.006;9.292;2023-02-16T11:03:38;99787.41;;;26.28;30.98
50933;BME280;36921;49.006;9.292;2023-02-16T11:06:14;99756.16;;;27.46;30.04
50933;BME280;36921;49.006;9.292;2023-02-16T11:08:54;99770.19;;;27.60;29.87
50933;BME280;36921;49.006;9.292;2023-02-16T11:11:29;99773.28;;;28.59;29.72
50933;BME280;36921;49.006;9.292;2023-02-16T11:14:01;99770.03;;;28.71;28.89
50933;BME280;36921;49.006;9.292;2023-02-16T11:16:28;99770.53;;;28.11;28.82
50933;BME280;36921;49.006;9.292;2023-02-16T11:19:12;99765.13;;;29.06;28.46
50933;BME280;36921;49.006;9.292;2023-02-16T11:21:51;99767.13;;;29.00;28.44
50933;BME280;36921;49.006;9.292;2023-02-16T11:24:45;99770.53;;;28.11;28.68
50933;BME280;36921;49.006;9.292;2023-02-16T11:27:18;99761.13;;;28.26;29.04
50933;BME280;36921;49.006;9.292;2023-02-16T11:29:44;99751.50;;;29.37;27.60
50933;BME280;36921;49.006;9.292;2023-02-16T11:32:11;99761.03;;;28.12;28.19
50933;BME280;36921;49.006;9.292;2023-02-16T11:34:49;99759.75;;;27.12;29.30
50933;BME280;36921;49.006;9.292;2023-02-16T11:37:24;99749.94;;;26.85;29.55
50933;BME280;36921;49.006;9.292;2023-02-16T11:39:56;99753.19;;;26.93;29.16
50933;BME280;36921;49.006;9.292;2023-02-16T11:42:53;99750.78;;;26.81;29.61
50933;BME280;36921;49.006;9.292;2023-02-16T11:45:31;99749.06;;;27.29;29.38
50933;BME280;36921;49.006;9.292;2023-02-16T11:48:06;99738.34;;;28.00;28.91
50933;BME280;36921;49.006;9.292;2023-02-16T11:50:38;99739.78;;;28.65;28.47
50933;BME280;36921;49.006;9.292;2023-02-16T11:55:44;99737.94;;;28.36;27.58
50933;BME280;36921;49.006;9.292;2023-02-16T12:18:11;99701.19;;;31.03;25.66
50933;BME280;36921;49.006;9.292;2023-02-16T12:20:53;99696.81;;;27.85;27.96
50933;BME280;36921;49.006;9.292;2023-02-16T12:23:37;99696.13;;;27.10;29.32
50933;BME280;36921;49.006;9.292;2023-02-16T12:26:25;99689.56;;;26.62;29.42
50933;BME280;36921;49.006;9.292;2023-02-16T12:45:35;99675.78;;;23.23;32.86
50933;BME280;36921;49.006;9.292;2023-02-16T12:50:53;99675.13;;;22.78;34.20
50933;BME280;36921;49.006;9.292;2023-02-16T12:53:33;99662.00;;;23.28;33.68
50933;BME280;36921;49.006;9.292;2023-02-16T12:56:11;99658.44;;;25.09;31.75
50933;BME280;36921;49.006;9.292;2023-02-16T12:58:44;99662.34;;;23.36;33.12
50933;BME280;36921;49.006;9.292;2023-02-16T13:01:23;99665.00;;;22.57;34.42
50933;BME280;36921;49.006;9.292;2023-02-16T13:06:51;99647.06;;;26.17;31.73
50933;BME280;36921;49.006;9.292;2023-02-16T13:14:37;99641.97;;;26.79;30.49
50933;BME280;36921;49.006;9.292;2023-02-16T13:17:13;99632.88;;;27.02;30.56
50933;BME280;36921;49.006;9.292;2023-02-16T13:19:41;99628.16;;;27.32;30.48
50933;BME280;36921;49.006;9.292;2023-02-16T13:22:29;99631.97;;;27.12;30.48
50933;BME280;36921;49.006;9.292;2023-02-16T13:41:47;99618.53;;;25.36;32.85
50933;BME280;36921;49.006;9.292;2023-02-16T13:44:18;99614.25;;;25.85;32.51
50933;BME280;36921;49.006;9.292;2023-02-16T13:46:46;99614.44;;;25.98;32.67
50933;BME280;36921;49.006;9.292;2023-02-16T13:49:34;99609.13;;;25.37;32.93
50933;BME280;36921;49.006;9.292;2023-02-16T13:52:05;99609.84;;;25.73;32.34
50933;BME280;36921;49.006;9.292;2023-02-16T13:54:39;99624.56;;;24.00;34.45
50933;BME280;36921;49.006;9.292;2023-02-16T13:57:13;99614.34;;;22.14;36.22
50933;BME280;36921;49.006;9.292;2023-02-16T14:02:11;99619.91;;;23.53;36.07
50933;BME280;36921;49.006;9.292;2023-02-16T14:17:28;99614.59;;;20.23;39.97
50933;BME280;36921;49.006;9.292;2023-02-16T14:20:03;99620.69;;;19.84;40.70
50933;BME280;36921;49.006;9.292;2023-02-16T14:25:35;99623.38;;;18.20;42.90
50933;BME280;36921;49.006;9.292;2023-02-16T14:28:53;99628.69;;;18.03;43.70
50933;BME280;36921;49.006;9.292;2023-02-16T14:31:22;99623.44;;;18.31;43.62
50933;BME280;36921;49.006;9.292;2023-02-16T14:34:06;99620.16;;;18.23;44.16
50933;BME280;36921;49.006;9.292;2023-02-16T14:39:43;99619.56;;;18.21;44.86
50933;BME280;36921;49.006;9.292;2023-02-16T14:42:28;99622.97;;;18.46;44.86
50933;BME280;36921;49.006;9.292;2023-02-16T14:45:21;99624.06;;;18.45;45.33
50933;BME280;36921;49.006;9.292;2023-02-16T14:48:20;99619.19;;;18.05;45.91
50933;BME280;36921;49.006;9.292;2023-02-16T14:54:08;99618.66;;;17.78;44.78
50933;BME280;36921;49.006;9.292;2023-02-16T14:56:53;99616.75;;;17.79;45.11
50933;BME280;36921;49.006;9.292;2023-02-16T14:59:55;99611.84;;;17.87;45.41
50933;BME280;36921;49.006;9.292;2023-02-16T15:02:33;99623.63;;;17.69;45.76
50933;BME280;36921;49.006;9.292;2023-02-16T15:05:19;99617.38;;;17.44;46.22
50933;BME280;36921;49.006;9.292;2023-02-16T15:07:47;99611.59;;;17.34;46.10
50933;BME280;36921;49.006;9.292;2023-02-16T15:10:24;99607.88;;;17.28;46.77
50933;BME280;36921;49.006;9.292;2023-02-16T15:12:52;99602.06;;;16.81;48.15
50933;BME280;36921;49.006;9.292;2023-02-16T15:15:20;99614.84;;;16.30;48.24
50933;BME280;36921;49.006;9.292;2023-02-16T15:17:48;99606.59;;;16.05;49.50
50933;BME280;36921;49.006;9.292;2023-02-16T15:20:19;99587.63;;;15.85;50.78
50933;BME280;36921;49.006;9.292;2023-02-16T15:22:49;99602.84;;;15.99;51.14
50933;BME280;36921;49.006;9.292;2023-02-16T15:27:57;99606.53;;;15.80;50.39
50933;BME280;36921;49.006;9.292;2023-02-16T15:30:29;99598.59;;;15.65;50.94
50933;BME280;36921;49.006;9.292;2023-02-16T15:33:00;99600.50;;;15.58;51.81
50933;BME280;36921;49.006;9.292;2023-02-16T15:35:34;99601.63;;;15.44;53.04
50933;BME280;36921;49.006;9.292;2023-02-16T15:38:31;99590.78;;;15.30;52.11
50933;BME280;36921;49.006;9.292;2023-02-16T15:41:03;99594.47;;;15.43;52.46
50933;BME280;36921;49.006;9.292;2023-02-16T15:43:36;99592.81;;;15.35;53.32
50933;BME280;36921;49.006;9.292;2023-02-16T15:46:12;99589.13;;;15.16;54.07
50933;BME280;36921;49.006;9.292;2023-02-16T15:48:39;99592.31;;;15.06;55.50